Time;durP1;ratioP1;P1;durP2;ratioP2;P2;SDS_P1;SDS_P2;PMS_P1;PMS_P2;Temp;Humidity;BMP_temperature;BMP_pressure;BME280_temperature;BME280_humidity;BME280_pressure;Samples;Min_cycle;Max_cycle;Signal;HPM_P1;HPM_P2
2022/12/19 00:02:17;;;;;;;59.92;31.45;;;;;;;-0.17;100.00;101835.72;5053479;28;20025;-80
2022/12/19 00:04:42;;;;;;;61.17;32.10;;;;;;;-0.08;100.00;101846.69;5053650;28;20056;-80
2022/12/19 00:07:07;;;;;;;57.88;33.05;;;;;;;-0.05;100.00;101831.44;5053508;28;20033;-80
2022/12/19 00:09:33;;;;;;;59.30;31.90;;;;;;;0.01;100.00;101822.13;5053711;28;20063;-80
2022/12/19 00:11:58;;;;;;;59.85;31.33;;;;;;;-0.11;100.00;101800.13;5053605;28;20388;-80
2022/12/19 00:14:23;;;;;;;64.82;32.17;;;;;;;0.03;100.00;101793.34;5053348;28;20399;-80
2022/12/19 00:16:49;;;;;;;58.97;32.28;;;;;;;0.18;100.00;101821.19;5053414;28;20059;-80
2022/12/19 00:19:14;;;;;;;61.58;31.67;;;;;;;0.23;100.00;101814.41;5053199;28;20434;-79
2022/12/19 00:21:39;;;;;;;66.95;33.30;;;;;;;0.04;100.00;101782.31;5053098;28;20040;-80
2022/12/19 00:24:06;;;;;;;62.83;31.50;;;;;;;0.09;100.00;101790.75;5053162;28;20017;-80
2022/12/19 00:26:34;;;;;;;62.45;32.35;;;;;;;0.37;100.00;101816.03;5053123;28;20104;-80
2022/12/19 00:29:03;;;;;;;63.53;31.92;;;;;;;-0.72;100.00;101630.34;5053425;28;20120;-80
2022/12/19 00:31:36;;;;;;;63.47;32.22;;;;;;;-0.19;100.00;101711.34;5053181;28;20047;-80
2022/12/19 00:34:06;;;;;;;61.63;32.15;;;;;;;0.46;100.00;101800.72;5052937;28;20893;-80
2022/12/19 00:36:33;;;;;;;62.65;31.67;;;;;;;0.51;100.00;101787.16;5053063;28;20021;-79
2022/12/19 00:39:00;;;;;;;64.82;32.30;;;;;;;0.56;100.00;101794.75;5053409;28;20102;-80
2022/12/19 00:41:30;;;;;;;64.25;32.45;;;;;;;0.58;100.00;101788.78;5053011;28;20031;-81
2022/12/19 00:44:09;;;;;;;63.08;33.33;;;;;;;-0.04;100.00;101674.88;5051657;28;20085;-80
2022/12/19 00:46:35;;;;;;;61.65;32.15;;;;;;;0.02;100.00;101668.91;5052805;28;20032;-80
2022/12/19 00:49:01;;;;;;;59.10;31.48;;;;;;;0.09;100.00;101678.16;5052999;28;20025;-80
2022/12/19 00:51:28;;;;;;;63.10;33.30;;;;;;;0.64;100.00;101765.03;5053011;28;20029;-80
2022/12/19 00:53:55;;;;;;;59.15;31.65;;;;;;;0.65;100.00;101768.44;5052886;28;20021;-81
2022/12/19 00:56:36;;;;;;;58.10;32.88;;;;;;;0.64;100.00;101767.59;5052767;28;20039;-80
2022/12/19 00:59:08;;;;;;;61.00;31.73;;;;;;;-0.52;100.00;101566.84;5052238;28;20106;-81
2022/12/19 01:01:39;;;;;;;59.95;30.83;;;;;;;-0.02;100.00;101646.06;5052933;28;20479;-80
2022/12/19 01:04:11;;;;;;;55.70;30.48;;;;;;;-0.03;100.00;101634.22;5053039;28;20074;-81
2022/12/19 01:06:46;;;;;;;57.03;30.65;;;;;;;0.66;100.00;101740.44;5052769;28;20108;-81
2022/12/19 01:09:11;;;;;;;59.22;32.42;;;;;;;0.64;100.00;101738.78;5052928;28;20029;-81
2022/12/19 01:14:22;;;;;;;52.63;30.33;;;;;;;0.71;100.00;101741.28;5052930;28;20036;-80
2022/12/19 01:16:48;;;;;;;59.03;31.52;;;;;;;0.67;100.00;101739.59;5052763;28;20048;-80
2022/12/19 01:19:13;;;;;;;56.13;30.80;;;;;;;0.09;100.00;101635.00;5052827;28;20503;-81
2022/12/19 01:21:50;;;;;;;60.67;33.60;;;;;;;0.76;100.00;101729.34;5052641;28;20108;-81
2022/12/19 01:24:24;;;;;;;60.03;31.92;;;;;;;0.41;100.00;101675.44;5052671;28;20036;-80
2022/12/19 01:26:56;;;;;;;57.72;31.27;;;;;;;0.78;100.00;101725.09;5052774;28;20049;-80
2022/12/19 01:29:24;;;;;;;60.85;30.63;;;;;;;-0.41;100.00;101520.25;5052718;28;20060;-81
2022/12/19 01:31:49;;;;;;;60.33;30.90;;;;;;;0.83;100.00;101720.00;5052580;28;20025;-81
2022/12/19 01:34:15;;;;;;;59.25;31.13;;;;;;;0.82;100.00;101714.06;5052430;28;20131;-80
2022/12/19 01:36:40;;;;;;;61.17;30.85;;;;;;;0.82;100.00;101728.47;5052172;28;20033;-82
2022/12/19 01:39:06;;;;;;;56.38;30.48;;;;;;;0.81;100.00;101725.09;5052743;28;20068;-81
2022/12/19 01:41:31;;;;;;;59.08;29.88;;;;;;;0.74;100.00;101720.91;5052791;28;20021;-81
2022/12/19 01:44:03;;;;;;;59.03;31.17;;;;;;;0.82;100.00;101729.31;5052202;28;20037;-81
2022/12/19 01:46:47;;;;;;;55.65;31.30;;;;;;;0.66;100.00;101701.47;5052560;28;20033;-80
2022/12/19 01:49:31;;;;;;;58.05;30.77;;;;;;;-0.46;100.00;101504.25;5052441;28;20452;-79
2022/12/19 01:52:04;;;;;;;56.30;30.40;;;;;;;0.84;100.00;101719.97;5052441;28;20032;-80
2022/12/19 01:54:40;;;;;;;56.53;30.08;;;;;;;0.60;100.00;101676.13;5052390;28;20029;-79
2022/12/19 01:57:14;;;;;;;54.67;29.23;;;;;;;0.27;100.00;101619.63;5052460;28;20396;-80
2022/12/19 01:59:44;;;;;;;55.95;29.58;;;;;;;0.84;100.00;101717.44;5058952;23;20063;-80
2022/12/19 02:02:19;;;;;;;58.05;30.08;;;;;;;0.74;100.00;101703.09;5052365;28;20530;-79
2022/12/19 02:04:46;;;;;;;57.20;30.17;;;;;;;0.70;100.00;101680.28;5052364;28;20044;-78
2022/12/19 02:07:13;;;;;;;59.78;30.77;;;;;;;0.85;100.00;101713.19;5052342;28;20056;-78
2022/12/19 02:09:38;;;;;;;57.72;30.42;;;;;;;0.86;100.00;101702.16;5053030;28;20025;-79
2022/12/19 02:12:04;;;;;;;57.03;31.25;;;;;;;0.78;100.00;101681.88;5055872;28;20095;-78
2022/12/19 02:14:30;;;;;;;60.15;30.60;;;;;;;0.71;100.00;101662.47;5054497;28;20021;-78
2022/12/19 02:17:15;;;;;;;62.30;31.40;;;;;;;0.88;100.00;101689.41;5055943;28;20025;-78
2022/12/19 02:20:02;;;;;;;57.75;30.85;;;;;;;0.89;100.00;101681.81;5055697;28;20052;-79
2022/12/19 02:23:01;;;;;;;59.83;32.30;;;;;;;0.91;100.00;101679.25;5054263;28;20443;-78
2022/12/19 02:25:38;;;;;;;65.53;31.20;;;;;;;0.92;100.00;101684.31;5055892;28;20032;-81
2022/12/19 02:28:11;;;;;;;60.10;32.15;;;;;;;0.94;100.00;101669.03;5056194;28;20094;-78
2022/12/19 02:30:55;;;;;;;67.32;33.53;;;;;;;0.95;100.00;101671.56;5054617;28;20028;-78
2022/12/19 02:33:55;;;;;;;63.88;30.77;;;;;;;0.86;100.00;101649.59;5055499;28;20037;-78
2022/12/19 02:36:31;;;;;;;63.05;32.72;;;;;;;0.93;100.00;101655.47;5067657;22;20148;-78
2022/12/19 02:39:10;;;;;;;60.05;30.80;;;;;;;0.99;100.00;101668.16;5055363;28;20029;-78
2022/12/19 02:41:43;;;;;;;64.80;32.13;;;;;;;0.96;100.00;101665.59;5055200;28;20107;-81
2022/12/19 02:44:28;;;;;;;62.72;32.45;;;;;;;0.95;100.00;101635.97;5055368;28;20036;-78
2022/12/19 02:46:54;;;;;;;65.57;32.53;;;;;;;0.57;100.00;101571.09;5053876;28;20033;-78
2022/12/19 02:49:19;;;;;;;60.58;31.23;;;;;;;1.07;100.00;101640.91;5055445;28;20037;-79
2022/12/19 02:51:54;;;;;;;55.28;29.25;;;;;;;0.99;100.00;101613.91;5055206;28;20215;-79
2022/12/19 02:54:27;;;;;;;64.45;30.50;;;;;;;1.12;100.00;101631.53;5054661;28;20028;-79
2022/12/19 02:57:15;;;;;;;59.63;31.05;;;;;;;1.16;100.00;101627.25;5055254;28;20040;-79
2022/12/19 02:59:54;;;;;;;61.47;30.92;;;;;;;1.21;100.00;101624.66;5055029;28;20040;-79
2022/12/19 03:03:01;;;;;;;56.88;30.13;;;;;;;1.23;100.00;101628.03;5054519;28;20399;-79
2022/12/19 03:05:33;;;;;;;59.45;30.30;;;;;;;1.01;100.00;101585.03;5055064;28;20039;-79
2022/12/19 03:08:13;;;;;;;57.45;30.33;;;;;;;1.17;100.00;101600.09;5054783;28;20147;-78
2022/12/19 03:10:57;;;;;;;55.13;30.75;;;;;;;1.33;100.00;101619.44;5054624;28;20389;-80
2022/12/19 03:13:43;;;;;;;58.30;31.83;;;;;;;1.36;100.00;101625.31;5054743;28;20040;-78
2022/12/19 03:16:11;;;;;;;60.88;31.08;;;;;;;1.17;100.00;101584.84;5054481;28;20025;-80
2022/12/19 03:18:37;;;;;;;64.10;30.52;;;;;;;1.44;100.00;101617.59;5054705;28;20116;-81
2022/12/19 03:21:03;;;;;;;65.88;31.63;;;;;;;1.49;100.00;101620.94;5054239;28;20033;-79
2022/12/19 03:23:29;;;;;;;60.40;29.88;;;;;;;1.47;100.00;101614.16;5054574;28;20603;-80
2022/12/19 03:26:00;;;;;;;59.35;31.08;;;;;;;1.42;100.00;101598.97;5054328;28;20025;-79
2022/12/19 03:28:51;;;;;;;59.38;31.02;;;;;;;1.56;100.00;101616.59;5054574;28;20111;-78
2022/12/19 03:31:19;;;;;;;63.92;30.20;;;;;;;1.60;100.00;101614.00;5052425;28;20123;-79
2022/12/19 03:33:48;;;;;;;63.03;30.40;;;;;;;1.62;100.00;101611.41;5052353;28;20041;-79
2022/12/19 03:36:19;;;;;;;60.92;30.52;;;;;;;1.64;100.00;101613.06;5051856;28;20510;-80
2022/12/19 03:38:46;;;;;;;58.50;29.15;;;;;;;1.41;100.00;101564.19;5052030;28;20581;-80
2022/12/19 03:41:14;;;;;;;58.03;29.63;;;;;;;1.71;100.00;101607.03;5051859;28;20052;-79
2022/12/19 03:43:42;;;;;;;66.47;31.65;;;;;;;1.76;100.00;101598.50;5052040;28;20065;-80
2022/12/19 03:46:15;;;;;;;58.22;29.15;;;;;;;1.80;100.00;101592.50;5034777;28;20558;-80
2022/12/19 03:48:49;;;;;;;60.63;30.50;;;;;;;1.58;100.00;101548.69;5051919;28;20451;-80
2022/12/19 03:51:40;;;;;;;67.55;29.90;;;;;;;1.88;100.00;101594.09;5035019;28;20606;-79
2022/12/19 03:54:14;;;;;;;57.65;28.08;;;;;;;1.95;100.00;101587.16;5051806;28;20025;-80
2022/12/19 03:56:39;;;;;;;58.13;29.35;;;;;;;1.99;100.00;101582.03;5051670;28;20536;-79
2022/12/19 03:59:30;;;;;;;59.13;28.67;;;;;;;2.04;100.00;101591.28;5051802;28;20125;-79
2022/12/19 04:01:56;;;;;;;59.63;27.83;;;;;;;2.07;100.00;101586.16;5051685;28;20037;-79
2022/12/19 04:04:24;;;;;;;61.28;29.05;;;;;;;2.06;100.00;101577.66;5051493;28;20033;-79
2022/12/19 04:06:51;;;;;;;59.55;29.20;;;;;;;2.07;100.00;101564.06;5051564;28;20519;-81
2022/12/19 04:09:23;;;;;;;58.17;27.38;;;;;;;2.20;100.00;101575.75;5053520;28;20080;-79
2022/12/19 04:11:55;;;;;;;61.03;28.00;;;;;;;2.37;100.00;101579.72;5053665;28;20021;-79
2022/12/19 04:14:38;;;;;;;61.00;27.00;;;;;;;2.32;100.00;101563.66;5053422;28;20051;-79
2022/12/19 04:17:22;;;;;;;54.70;24.90;;;;;;;2.48;100.00;101572.72;5052544;28;20392;-80
2022/12/19 04:20:07;;;;;;;53.95;24.83;;;;;;;2.55;100.00;101571.72;5053303;28;20391;-80
2022/12/19 04:22:46;;;;;;;56.83;25.83;;;;;;;2.67;100.00;101565.59;5053547;28;20025;-80
2022/12/19 04:25:17;;;;;;;51.38;25.15;;;;;;;2.63;100.00;101541.84;5053343;28;20025;-79
2022/12/19 04:27:49;;;;;;;55.78;25.23;;;;;;;2.63;100.00;101528.25;5053626;28;20083;-80
2022/12/19 04:30:16;;;;;;;54.67;25.40;;;;;;;2.41;100.00;101466.66;5053287;28;20033;-78
2022/12/19 04:32:42;;;;;;;53.70;24.48;;;;;;;3.02;100.00;101558.09;5052460;28;20183;-77
2022/12/19 04:35:08;;;;;;;53.38;23.65;;;;;;;3.08;100.00;101555.41;5053228;28;20036;-78
2022/12/19 04:37:34;;;;;;;56.95;26.80;;;;;;;2.92;100.00;101504.72;5052876;28;20392;-77
2022/12/19 04:39:59;;;;;;;48.90;24.73;;;;;;;3.25;100.00;101554.25;5053395;28;20119;-78
2022/12/19 04:42:24;;;;;;;52.00;23.65;;;;;;;3.28;100.00;101549.91;5053378;28;20072;-78
2022/12/19 04:44:49;;;;;;;50.70;24.05;;;;;;;3.33;100.00;101553.19;5053257;28;20029;-78
2022/12/19 04:47:15;;;;;;;51.15;23.75;;;;;;;3.36;100.00;101547.19;5053197;28;20025;-78
2022/12/19 04:49:40;;;;;;;49.05;23.45;;;;;;;3.39;100.00;101547.97;5053245;28;20025;-77
2022/12/19 04:52:05;;;;;;;48.45;22.98;;;;;;;3.23;100.00;101510.88;5052981;28;20550;-80
2022/12/19 04:54:31;;;;;;;49.20;23.60;;;;;;;3.52;100.00;101548.53;5051790;28;20025;-78
2022/12/19 04:56:57;;;;;;;47.75;22.95;;;;;;;3.57;100.00;101556.94;5052881;28;20025;-78
2022/12/19 04:59:22;;;;;;;50.45;24.00;;;;;;;3.68;100.00;101554.97;5053053;28;20067;-78
2022/12/19 05:01:48;;;;;;;51.65;24.23;;;;;;;3.72;100.00;101558.28;5052925;28;20536;-78
2022/12/19 05:04:13;;;;;;;51.20;24.23;;;;;;;3.78;100.00;101555.59;5053050;28;20029;-77
2022/12/19 05:06:38;;;;;;;51.35;24.77;;;;;;;3.81;100.00;101550.41;5052939;28;20029;-77
2022/12/19 05:09:04;;;;;;;45.05;23.92;;;;;;;3.67;100.00;101520.09;5052892;28;20044;-77
2022/12/19 05:11:29;;;;;;;46.83;24.23;;;;;;;3.83;100.00;101532.50;5052841;28;20025;-77
2022/12/19 05:13:55;;;;;;;49.33;23.80;;;;;;;3.81;100.00;101531.69;5053046;28;20358;-77
2022/12/19 05:16:20;;;;;;;50.08;23.17;;;;;;;3.98;100.00;101544.91;5052647;28;20029;-78
2022/12/19 05:18:45;;;;;;;48.53;23.73;;;;;;;3.70;100.00;101497.03;5052952;28;20047;-77
2022/12/19 05:21:11;;;;;;;49.38;23.48;;;;;;;3.97;100.00;101533.84;5052885;28;20484;-81
2022/12/19 05:23:36;;;;;;;42.63;21.90;;;;;;;4.03;100.00;101545.63;5052683;28;20029;-79
2022/12/19 05:26:04;;;;;;;41.92;22.40;;;;;;;4.05;100.00;101541.34;5052538;28;20043;-79
2022/12/19 05:28:31;;;;;;;44.30;22.13;;;;;;;4.07;100.00;101531.06;5053006;28;20043;-80
2022/12/19 05:31:04;;;;;;;46.22;22.00;;;;;;;4.06;100.00;101522.56;5052877;28;20049;-80
2022/12/19 05:33:29;;;;;;;44.67;21.40;;;;;;;3.92;100.00;101491.38;5052346;28;20056;-79
2022/12/19 05:35:55;;;;;;;45.25;21.88;;;;;;;4.13;100.00;101520.69;5052687;28;20123;-81
2022/12/19 05:38:20;;;;;;;47.60;23.50;;;;;;;4.15;100.00;101512.13;5052317;28;20065;-79
2022/12/19 05:40:46;;;;;;;47.25;23.17;;;;;;;4.07;100.00;101493.56;5052568;28;20024;-81
2022/12/19 05:43:11;;;;;;;45.42;22.85;;;;;;;4.24;100.00;101522.09;5052421;28;20086;-80
2022/12/19 05:45:38;;;;;;;46.03;24.00;;;;;;;4.32;100.00;101520.16;5056427;28;20025;-80
2022/12/19 05:48:04;;;;;;;41.03;21.95;;;;;;;3.94;100.00;101453.88;5056552;28;20028;-80
2022/12/19 05:50:30;;;;;;;43.88;22.63;;;;;;;4.39;100.00;101525.97;5054835;28;20438;-80
2022/12/19 05:52:55;;;;;;;43.65;22.92;;;;;;;4.39;100.00;101504.69;5056244;28;20017;-80
2022/12/19 05:55:21;;;;;;;39.67;21.10;;;;;;;4.44;100.00;101520.75;5056095;28;20040;-80
2022/12/19 05:57:46;;;;;;;42.40;21.98;;;;;;;4.45;100.00;101520.72;5056062;28;20052;-80
2022/12/19 06:00:12;;;;;;;43.05;21.95;;;;;;;4.49;100.00;101519.75;5056221;28;20082;-80
2022/12/19 06:02:45;;;;;;;38.63;21.08;;;;;;;4.46;100.00;101532.63;5056309;28;20435;-80
2022/12/19 06:05:10;;;;;;;38.25;20.63;;;;;;;4.52;100.00;101529.03;5056079;28;20026;-80
2022/12/19 06:07:35;;;;;;;41.58;21.17;;;;;;;4.55;100.00;101528.97;5056077;28;20040;-80
2022/12/19 06:10:01;;;;;;;39.38;20.20;;;;;;;4.38;100.00;101491.06;5055999;28;20104;-80
2022/12/19 06:12:26;;;;;;;38.97;20.00;;;;;;;4.50;100.00;101515.47;5055724;28;20025;-80
2022/12/19 06:14:51;;;;;;;36.85;19.60;;;;;;;4.62;100.00;101520.25;5055875;28;20036;-80
2022/12/19 06:17:16;;;;;;;35.97;19.48;;;;;;;4.29;100.00;101468.28;5055951;28;20025;-80
2022/12/19 06:19:42;;;;;;;34.50;19.77;;;;;;;4.66;100.00;101516.72;5055837;28;20440;-80
2022/12/19 06:22:14;;;;;;;35.58;18.92;;;;;;;4.27;100.00;101452.16;5055843;28;20468;-80
2022/12/19 06:24:39;;;;;;;34.95;19.67;;;;;;;4.64;100.00;101512.53;5055451;28;20033;-81
2022/12/19 06:27:05;;;;;;;36.90;19.67;;;;;;;4.23;100.00;101441.19;5055603;28;20032;-81
2022/12/19 06:29:30;;;;;;;34.45;20.58;;;;;;;4.57;100.00;101496.53;5055620;28;20024;-80
2022/12/19 06:31:55;;;;;;;37.05;19.23;;;;;;;4.80;100.00;101524.84;5055641;28;20416;-80
2022/12/19 06:34:21;;;;;;;34.20;17.88;;;;;;;4.76;100.00;101528.38;5055416;28;20150;-80
2022/12/19 06:36:46;;;;;;;35.65;17.98;;;;;;;4.82;100.00;101532.50;5055340;28;20076;-80
2022/12/19 06:39:13;;;;;;;30.38;18.15;;;;;;;4.76;100.00;101510.47;5055284;28;20021;-80
2022/12/19 06:44:32;;;;;;;30.70;18.23;;;;;;;4.90;100.00;101541.63;5055174;28;20035;-79
2022/12/19 06:46:58;;;;;;;33.50;18.42;;;;;;;4.99;100.00;101534.56;5055271;28;20055;-81
2022/12/19 06:49:23;;;;;;;34.00;17.88;;;;;;;4.98;100.00;101536.28;5055258;28;20029;-80
2022/12/19 06:51:48;;;;;;;30.23;17.20;;;;;;;4.85;100.00;101523.03;5055085;28;20078;-80
2022/12/19 06:54:14;;;;;;;31.40;17.95;;;;;;;4.99;100.00;101521.78;5053878;28;20025;-79
2022/12/19 06:56:41;;;;;;;30.73;17.63;;;;;;;5.09;100.00;101534.25;5054539;28;20017;-80
2022/12/19 06:59:10;;;;;;;34.50;18.10;;;;;;;5.04;100.00;101522.50;5054920;28;20033;-79
2022/12/19 07:01:54;;;;;;;30.88;17.85;;;;;;;5.04;100.00;101517.38;5055139;28;20025;-80
2022/12/19 07:04:26;;;;;;;29.63;17.90;;;;;;;5.15;100.00;101538.38;5053747;28;20048;-80
2022/12/19 07:06:51;;;;;;;31.42;17.15;;;;;;;4.85;100.00;101489.75;5053631;28;20021;-80
2022/12/19 07:09:17;;;;;;;29.13;18.10;;;;;;;5.16;100.00;101546.00;5054900;28;20032;-80
2022/12/19 07:11:42;;;;;;;29.98;17.55;;;;;;;5.07;100.00;101518.13;5055080;28;20057;-78
2022/12/19 07:14:08;;;;;;;28.17;17.13;;;;;;;5.13;100.00;101529.91;5054568;28;20056;-78
2022/12/19 07:16:33;;;;;;;29.05;18.02;;;;;;;4.90;100.00;101484.47;5054880;28;20103;-78
2022/12/19 07:18:58;;;;;;;27.42;17.65;;;;;;;5.06;100.00;101497.69;5054724;28;20072;-78
2022/12/19 07:21:24;;;;;;;30.20;17.25;;;;;;;5.23;100.00;101539.00;5054284;28;20044;-78
2022/12/19 07:23:49;;;;;;;29.77;18.00;;;;;;;5.24;100.00;101537.28;5054698;28;20036;-80
2022/12/19 07:26:15;;;;;;;29.50;17.80;;;;;;;5.23;100.00;101533.88;5054712;28;20033;-78
2022/12/19 07:28:43;;;;;;;29.65;18.20;;;;;;;5.20;100.00;101539.06;5054162;28;20029;-77
2022/12/19 07:31:08;;;;;;;30.23;17.02;;;;;;;5.27;100.00;101545.69;5053174;28;20025;-77
2022/12/19 07:33:33;;;;;;;33.13;16.27;;;;;;;5.17;100.00;101518.69;5053263;28;20103;-78
2022/12/19 07:35:59;;;;;;;31.08;18.13;;;;;;;5.32;100.00;101548.13;5053825;28;20033;-74
2022/12/19 07:38:24;;;;;;;30.65;17.73;;;;;;;5.35;100.00;101548.03;5054693;28;20070;-77
2022/12/19 07:40:49;;;;;;;29.30;17.67;;;;;;;5.34;100.00;101552.31;5054118;28;20036;-77
2022/12/19 07:43:15;;;;;;;27.25;16.55;;;;;;;5.17;100.00;101534.03;5053939;28;20110;-76
2022/12/19 07:45:40;;;;;;;27.13;16.70;;;;;;;5.32;100.00;101556.66;5054060;28;20025;-77
2022/12/19 07:48:06;;;;;;;23.98;14.77;;;;;;;5.33;100.00;101550.66;5053888;28;20423;-77
2022/12/19 07:50:32;;;;;;;25.80;16.73;;;;;;;5.04;100.00;101504.59;5053929;28;20025;-79
2022/12/19 07:52:57;;;;;;;27.23;15.73;;;;;;;5.35;100.00;101551.44;5054166;28;20538;-78
2022/12/19 07:55:23;;;;;;;26.08;14.73;;;;;;;5.21;100.00;101530.53;5052634;28;20188;-76
2022/12/19 07:57:49;;;;;;;24.30;15.93;;;;;;;5.40;100.00;101564.09;5053903;28;20052;-77
2022/12/19 08:00:15;;;;;;;24.30;14.15;;;;;;;5.25;100.00;101547.47;5053645;28;20032;-78
2022/12/19 08:02:40;;;;;;;22.25;13.57;;;;;;;5.38;100.00;101571.81;5053732;28;20033;-78
2022/12/19 08:05:05;;;;;;;21.63;14.13;;;;;;;5.35;100.00;101561.69;5053821;28;20075;-75
2022/12/19 08:07:31;;;;;;;22.83;13.73;;;;;;;5.32;100.00;101563.50;5052504;28;20128;-77
2022/12/19 08:09:57;;;;;;;23.35;14.40;;;;;;;5.22;100.00;101542.44;5053619;28;20112;-77
2022/12/19 08:12:22;;;;;;;22.38;13.35;;;;;;;5.45;100.00;101577.63;5053709;28;20033;-78
2022/12/19 08:14:48;;;;;;;20.63;13.75;;;;;;;5.40;100.00;101570.06;5053610;28;20104;-79
2022/12/19 08:17:13;;;;;;;20.50;13.07;;;;;;;5.37;100.00;101574.44;5053644;28;20515;-79
2022/12/19 08:19:39;;;;;;;24.17;14.25;;;;;;;5.48;100.00;101583.47;5053747;28;20033;-79
2022/12/19 08:22:04;;;;;;;21.35;12.93;;;;;;;5.48;100.00;101574.97;5053643;28;20159;-77
2022/12/19 08:24:29;;;;;;;20.17;12.07;;;;;;;5.18;100.00;101520.38;5053508;28;20025;-78
2022/12/19 08:26:55;;;;;;;19.27;12.20;;;;;;;5.51;100.00;101577.44;5053593;28;20029;-78
2022/12/19 08:29:20;;;;;;;22.40;12.52;;;;;;;5.48;100.00;101554.47;5053333;28;20044;-78
2022/12/19 08:31:46;;;;;;;18.08;12.23;;;;;;;5.55;100.00;101579.03;5053379;28;20186;-77
2022/12/19 08:34:11;;;;;;;19.88;12.35;;;;;;;5.42;100.00;101545.25;5053336;28;20139;-77
2022/12/19 08:36:38;;;;;;;18.17;11.63;;;;;;;5.51;100.00;101566.38;5051928;28;20072;-78
2022/12/19 08:39:04;;;;;;;20.02;12.38;;;;;;;5.47;100.00;101553.63;5053226;28;20060;-75
2022/12/19 08:41:29;;;;;;;20.13;12.45;;;;;;;5.58;100.00;101570.38;5053332;28;20032;-77
2022/12/19 08:43:55;;;;;;;17.50;11.63;;;;;;;5.66;100.00;101579.53;5053499;28;20029;-77
2022/12/19 08:46:20;;;;;;;17.88;11.52;;;;;;;5.69;100.00;101587.09;5052984;28;20132;-77
2022/12/19 08:48:46;;;;;;;16.30;11.57;;;;;;;5.70;100.00;101586.25;5053338;28;20112;-77
2022/12/19 08:51:13;;;;;;;17.58;12.25;;;;;;;5.72;100.00;101593.88;5053221;28;20472;-78
2022/12/19 08:53:40;;;;;;;19.05;12.25;;;;;;;5.76;100.00;101587.78;5053117;28;20433;-78
2022/12/19 08:56:09;;;;;;;21.15;13.05;;;;;;;5.60;100.00;101559.22;5053262;28;20029;-78
2022/12/19 08:58:34;;;;;;;17.40;11.95;;;;;;;5.56;100.00;101551.69;5051907;28;20466;-77
2022/12/19 09:01:05;;;;;;;18.88;12.45;;;;;;;5.72;100.00;101569.09;5052675;28;20070;-77
2022/12/19 09:03:31;;;;;;;18.70;11.88;;;;;;;5.82;100.00;101568.81;5035729;28;20378;-78
2022/12/19 09:06:02;;;;;;;17.33;12.05;;;;;;;5.92;100.00;101585.63;5053095;28;20033;-78
2022/12/19 09:08:28;;;;;;;18.87;11.67;;;;;;;5.94;100.00;101589.81;5052892;28;20033;-78
2022/12/19 09:10:58;;;;;;;17.67;10.93;;;;;;;5.96;100.00;101600.84;5052987;28;20667;-78
2022/12/19 09:13:25;;;;;;;19.25;10.38;;;;;;;5.97;100.00;101589.69;5052943;28;20017;-78
2022/12/19 09:16:03;;;;;;;16.60;11.15;;;;;;;5.97;100.00;101599.13;5052772;28;20369;-77
2022/12/19 09:18:30;;;;;;;15.52;10.70;;;;;;;5.91;100.00;101582.22;5053483;28;20065;-75
2022/12/19 09:20:56;;;;;;;15.73;9.88;;;;;;;6.01;100.00;101598.97;5055664;28;20029;-77
2022/12/19 09:23:26;;;;;;;16.25;10.73;;;;;;;6.02;100.00;101605.78;5057215;28;20017;-78
2022/12/19 09:25:52;;;;;;;14.25;9.45;;;;;;;6.03;100.00;101593.81;5057181;28;20032;-79
2022/12/19 09:28:18;;;;;;;16.88;10.30;;;;;;;5.91;100.00;101573.69;5056922;28;20025;-78
2022/12/19 09:30:44;;;;;;;14.38;9.57;;;;;;;6.09;100.00;101591.03;5055527;28;20071;-79
2022/12/19 09:33:10;;;;;;;16.88;10.30;;;;;;;6.14;100.00;101603.72;5056952;28;20536;-78
2022/12/19 09:35:35;;;;;;;14.70;10.35;;;;;;;6.17;100.00;101601.03;5056664;28;20025;-79
2022/12/19 09:38:02;;;;;;;14.68;9.50;;;;;;;5.99;100.00;101564.84;5056584;28;20125;-78
2022/12/19 09:40:34;;;;;;;14.88;9.27;;;;;;;6.08;100.00;101578.25;5056915;28;20080;-78
2022/12/19 09:43:22;;;;;;;15.85;9.55;;;;;;;6.22;100.00;101596.63;5056340;28;20021;-79
2022/12/19 09:46:05;;;;;;;15.27;10.57;;;;;;;6.27;100.00;101594.72;5056341;28;20492;-77
2022/12/19 09:48:31;;;;;;;17.58;10.20;;;;;;;6.24;100.00;101584.56;5056374;28;20032;-77
2022/12/19 09:51:11;;;;;;;14.45;9.65;;;;;;;6.21;100.00;101582.13;5056979;28;20025;-78
2022/12/19 09:53:57;;;;;;;13.63;8.82;;;;;;;6.38;100.00;101596.94;5055210;28;20500;-78
2022/12/19 09:56:28;;;;;;;14.43;9.65;;;;;;;6.42;100.00;101601.09;5056064;28;20025;-78
2022/12/19 09:59:01;;;;;;;15.52;9.73;;;;;;;6.43;100.00;101601.03;5056339;28;20100;-79
2022/12/19 10:01:37;;;;;;;13.68;8.88;;;;;;;6.49;100.00;101598.28;5056309;28;20086;-78
2022/12/19 10:04:10;;;;;;;14.65;8.88;;;;;;;6.51;100.00;101606.75;5056397;28;20025;-78
2022/12/19 10:06:36;;;;;;;12.60;8.88;;;;;;;6.61;100.00;101620.94;5056500;28;20404;-77
2022/12/19 10:09:02;;;;;;;14.98;9.57;;;;;;;6.69;100.00;101610.44;5055772;28;20033;-78
2022/12/19 10:11:39;;;;;;;13.43;9.25;;;;;;;6.79;100.00;101616.09;5056066;28;20123;-77
2022/12/19 10:14:23;;;;;;;13.68;9.05;;;;;;;6.85;100.00;101603.03;5056370;28;20029;-78
2022/12/19 10:17:00;;;;;;;12.73;8.65;;;;;;;6.90;100.00;101596.84;5055925;28;20056;-77
2022/12/19 10:19:31;;;;;;;12.80;9.18;;;;;;;6.94;100.00;101599.28;5055911;28;20025;-76
2022/12/19 10:22:12;;;;;;;11.60;7.80;;;;;;;6.99;100.00;101607.69;5055908;28;20033;-78
2022/12/19 10:25:07;;;;;;;11.95;7.60;;;;;;;7.04;100.00;101606.63;5055653;28;20473;-78
2022/12/19 10:27:40;;;;;;;11.68;7.40;;;;;;;7.07;100.00;101591.09;5055812;28;20476;-77
2022/12/19 10:30:17;;;;;;;13.52;8.13;;;;;;;7.13;100.00;101592.59;5054694;28;20029;-78
2022/12/19 10:33:22;;;;;;;10.85;6.78;;;;;;;7.15;100.00;101603.66;5055754;28;20402;-77
2022/12/19 10:35:55;;;;;;;10.40;6.90;;;;;;;7.14;100.00;101607.97;5055471;28;20071;-77
2022/12/19 10:38:28;;;;;;;11.57;7.53;;;;;;;7.12;100.00;101608.91;5055244;28;20041;-78
2022/12/19 10:41:02;;;;;;;12.63;7.03;;;;;;;7.07;100.00;101610.78;5055357;28;20531;-77
2022/12/19 10:43:46;;;;;;;13.68;7.65;;;;;;;6.98;100.00;101614.56;5055420;28;20469;-77
2022/12/19 10:46:44;;;;;;;11.80;7.15;;;;;;;6.55;100.00;101551.03;5055350;28;20028;-77
2022/12/19 10:49:28;;;;;;;16.15;7.22;;;;;;;6.88;100.00;101608.91;4997025;28;20077;-74
2022/12/19 10:52:07;;;;;;;12.45;7.68;;;;;;;6.79;100.00;101591.25;5013827;28;20033;-77
2022/12/19 10:54:42;;;;;;;12.07;8.02;;;;;;;6.84;100.00;101601.34;5013186;28;20547;-76
2022/12/19 10:57:17;;;;;;;11.27;8.07;;;;;;;6.82;100.00;101608.28;4996711;28;20056;-78
2022/12/19 10:59:54;;;;;;;12.18;8.32;;;;;;;6.76;100.00;101590.50;5013099;28;20552;-76
2022/12/19 11:02:39;;;;;;;13.85;8.27;;;;;;;6.80;100.00;101599.78;5013070;28;20490;-76
2022/12/19 11:05:21;;;;;;;12.60;7.60;;;;;;;6.77;100.00;101602.44;5012958;28;20044;-76
2022/12/19 11:08:19;;;;;;;12.73;7.80;;;;;;;6.69;100.00;101577.06;5017764;28;20033;-79
2022/12/19 11:10:51;;;;;;;13.95;8.65;;;;;;;6.78;100.00;101586.16;4974286;28;20081;-77
2022/12/19 11:13:37;;;;;;;13.05;8.55;;;;;;;6.79;100.00;101582.72;4974021;28;20118;-78
2022/12/19 11:16:05;;;;;;;11.05;7.93;;;;;;;6.80;100.00;101586.94;4974024;28;20058;-81
2022/12/19 11:18:34;;;;;;;12.20;8.30;;;;;;;6.80;100.00;101586.94;4973817;28;20043;-79
2022/12/19 11:21:01;;;;;;;12.00;7.97;;;;;;;6.82;100.00;101585.16;4968724;28;20042;-79
2022/12/19 11:23:28;;;;;;;13.88;8.68;;;;;;;6.85;100.00;101579.91;4974082;28;20039;-79
2022/12/19 11:26:02;;;;;;;13.68;7.63;;;;;;;6.89;100.00;101566.09;4973785;28;20077;-80
2022/12/19 11:28:33;;;;;;;12.38;8.00;;;;;;;6.94;100.00;101556.47;4974011;28;20422;-77
2022/12/19 11:31:05;;;;;;;13.40;8.88;;;;;;;7.00;100.00;101581.13;4973783;28;20058;-80